Wed, 10 Aug 2022 01:56:47 UTC | login

Information for RPM brotli-1.0.9-5.el9.ppc64le.rpm

ID102904
Namebrotli
Version1.0.9
Release5.el9
Epoch
Archppc64le
SummaryLossless compression algorithm
DescriptionBrotli is a generic-purpose lossless compression algorithm that compresses data using a combination of a modern variant of the LZ77 algorithm, Huffman coding and 2nd order context modeling, with a compression ratio comparable to the best currently available general-purpose compression methods. It is similar in speed with deflate but offers more dense compression.
Build Time2021-04-15 22:49:02 GMT
Size356,327
c9ff06be9ef7037c079913adc44dfe16
LicenseMIT
Buildrootc9s-build-22221-789
Provides
brotli = 1.0.9-5.el9
brotli(ppc-64) = 1.0.9-5.el9
Obsoletes No Obsoletes
Conflicts No Conflicts
Requires
libbrotli(ppc-64) = 1.0.9-5.el9
libc.so.6()(64bit)
libc.so.6(GLIBC_2.17)(64bit)
libc.so.6(GLIBC_2.33)(64bit)
libm.so.6()(64bit)
libm.so.6(GLIBC_2.29)(64bit)
rpmlib(CompressedFileNames) <= 3.0.4-1
rpmlib(FileDigests) <= 4.6.0-1
rpmlib(PayloadFilesHavePrefix) <= 4.0-1
rpmlib(PayloadIsZstd) <= 5.4.18-1
rtld(GNU_HASH)
Recommends No Recommends
Suggests No Suggests
Supplements No Supplements
Enhances No Enhances
Files
1 through 4 of 4
Name ascending sort Size
/usr/bin/brotli857,936
/usr/lib/.build-id0
/usr/lib/.build-id/6b0
/usr/lib/.build-id/6b/e8b45979b28b0cee84df6375c247e01dafbaf726
Component of
Page:
1 through 50 of 2355 >>>
Buildroot descending sort Created State
c9s-build-179813-26460 2021-08-17 09:23:27 expired
c9s-build-179573-26133 2021-08-16 14:54:14 expired
c9s-build-179494-26063 2021-08-16 12:08:08 expired
c9s-build-179358-26035 2021-08-16 09:12:41 expired
c9s-build-179342-26035 2021-08-16 09:04:40 expired
c9s-build-179224-25981 2021-08-16 06:35:51 expired
c9s-build-179107-25870 2021-08-13 16:52:22 expired
c9s-build-179102-25842 2021-08-13 16:41:35 expired
c9s-build-178999-25827 2021-08-13 12:27:16 expired
c9s-build-178981-25804 2021-08-13 10:21:25 expired
c9s-build-168225-25554 2021-08-12 11:50:09 expired
c9s-build-168212-25554 2021-08-12 11:39:59 expired
c9s-build-168189-25554 2021-08-12 11:14:49 expired
c9s-build-168184-25554 2021-08-12 11:10:59 expired
c9s-build-167959-25388 2021-08-11 20:33:52 expired
c9s-build-167911-25388 2021-08-11 14:59:42 expired
c9s-build-167898-25374 2021-08-11 14:31:50 expired
c9s-build-167893-25374 2021-08-11 14:29:03 expired
c9s-build-167845-25283 2021-08-11 10:59:38 expired
c9s-build-side-262-stack-gate-167833-25263 2021-08-11 09:36:07 expired
c9s-build-167779-25231 2021-08-11 08:41:14 expired
c9s-build-167523-25147 2021-08-10 14:42:04 expired
c9s-build-167499-25147 2021-08-10 13:14:08 expired
c9s-build-side-264-stack-gate-157225-24760 2021-08-09 19:44:25 expired
c9s-build-side-264-stack-gate-157199-24760 2021-08-09 19:42:49 expired
c9s-build-side-264-stack-gate-157191-24760 2021-08-09 19:42:01 expired
c9s-build-side-264-stack-gate-157138-24760 2021-08-09 19:37:39 expired
c9s-build-side-264-stack-gate-157084-24758 2021-08-09 19:34:24 expired
c9s-build-side-264-stack-gate-157021-24755 2021-08-09 19:32:13 expired
c9s-build-side-264-stack-gate-156989-24753 2021-08-09 19:31:06 expired
c9s-build-side-264-stack-gate-156967-24753 2021-08-09 19:30:35 expired
c9s-build-side-264-stack-gate-156919-24750 2021-08-09 19:29:15 expired
c9s-build-side-264-stack-gate-156860-24748 2021-08-09 19:27:14 expired
c9s-build-side-264-stack-gate-156806-24744 2021-08-09 19:24:20 expired
c9s-build-156687-24668 2021-08-09 17:10:05 expired
c9s-build-156663-24656 2021-08-09 15:01:17 expired
c9s-build-156649-24656 2021-08-09 14:46:16 expired
c9s-build-156631-24644 2021-08-09 14:00:04 expired
c9s-build-156568-24596 2021-08-09 12:56:59 expired
c9s-build-156560-24572 2021-08-09 12:40:30 expired
c9s-build-156554-24572 2021-08-09 12:39:55 expired
c9s-build-156481-24488 2021-08-09 11:54:23 expired
c9s-build-156443-24476 2021-08-09 11:47:09 expired
c9s-build-156423-24416 2021-08-09 11:26:22 expired
c9s-build-156350-24405 2021-08-09 09:32:25 expired
c9s-build-156346-24391 2021-08-09 08:40:41 expired
c9s-build-156334-24354 2021-08-09 06:29:55 expired
c9s-build-156314-24327 2021-08-09 01:43:34 expired
c9s-build-156288-24327 2021-08-08 06:26:39 expired
c9s-build-156226-24313 2021-08-07 13:12:21 expired